Yvonne K. — PBLX — position and weather

sailwx.info

Track history (hours):
 
Tides and Currents Weather Stations Pressure Air Temp Water Temp Dewpoint Dewpoint Depression Visibility Wind Speed Wind Dir Waves Ship Positions

Yvonne K.

Last reported at 2015-Mar-28 11:32 UTC. Time now 2015-Mar-28 12:22 UTC.
Position N 53°24' E 014°36'.

Length 90 m; draft 3.2 m.

Type: Cargo ship. MMSI: 244948000.

Date/timePositionNaut miles runAvg speedWind from/ knotsBaromVisibWave heightAir tempDewpointWater temp
2015-Mar-28 11:32N 53°24' E 014°36'0 0.0
2015-Mar-28 10:29N 53°24' E 014°36'0 0.0
2015-Mar-28 09:29N 53°24' E 014°36'0 0.0
2015-Mar-28 08:31N 53°24' E 014°36'0 0.0
2015-Mar-28 07:32N 53°24' E 014°36'0 0.0
2015-Mar-28 06:32N 53°24' E 014°36'0 0.0
2015-Mar-28 05:32N 53°24' E 014°36'0 0.0
2015-Mar-28 04:32N 53°24' E 014°36'0 0.0
2015-Mar-28 03:32N 53°24' E 014°36'0 0.0
2015-Mar-28 02:32N 53°24' E 014°36'0 0.0
2015-Mar-28 01:31N 53°24' E 014°36'0 0.0
2015-Mar-28 00:26N 53°24' E 014°36'0 0.0
2015-Mar-27 23:32N 53°24' E 014°36'0 0.0
2015-Mar-27 22:31N 53°24' E 014°36'0 0.0
2015-Mar-27 21:29N 53°24' E 014°36'0 0.0
2015-Mar-27 20:32N 53°24' E 014°36'0 0.0
2015-Mar-27 19:32N 53°24' E 014°36'0 0.0
2015-Mar-27 18:31N 53°24' E 014°36'0 0.0
2015-Mar-27 17:31N 53°24' E 014°36'0 0.0
2015-Mar-27 16:32N 53°24' E 014°36'0 0.0
2015-Mar-27 15:31N 53°24' E 014°36'0 0.0
2015-Mar-27 14:32N 53°24' E 014°36'0 0.0
2015-Mar-27 13:32N 53°24' E 014°36'0 0.0
2015-Mar-27 12:32N 53°24' E 014°36'0 0.0
2015-Mar-27 11:33N 53°24' E 014°36'4 4.1
2015-Mar-27 10:34N 53°28' E 014°36'8 8.4
2015-Mar-27 09:33N 53°37' E 014°35'9 9.4
2015-Mar-27 08:33N 53°44' E 014°26'9 8.6
2015-Mar-27 07:33N 53°51' E 014°17'2 2.3
2015-Mar-27 06:33N 53°54' E 014°16'0 0.0
2015-Mar-27 05:33N 53°54' E 014°16'0 0.0
2015-Mar-27 04:33N 53°54' E 014°16'0 0.0
2015-Mar-27 03:33N 53°54' E 014°16'0 0.0
2015-Mar-27 02:33N 53°54' E 014°16'0 0.0
2015-Mar-27 01:33N 53°54' E 014°16'0 0.0
2015-Mar-27 00:33N 53°54' E 014°16'0 0.0
2015-Mar-26 23:33N 53°54' E 014°16'0 0.0
2015-Mar-26 22:33N 53°54' E 014°16'0 0.0
2015-Mar-26 21:33N 53°54' E 014°16'0 0.0
2015-Mar-26 20:33N 53°54' E 014°16'0 0.0
2015-Mar-26 19:33N 53°54' E 014°16'0 0.0
2015-Mar-26 18:33N 53°54' E 014°16'0 0.0
2015-Mar-26 17:33N 53°54' E 014°16'0 0.0
2015-Mar-26 16:33N 53°54' E 014°16'0 0.0
2015-Mar-26 15:33N 53°54' E 014°16'0 0.0
2015-Mar-26 14:33N 53°54' E 014°16'0 0.0
2015-Mar-26 13:33N 53°54' E 014°16'0 0.0
2015-Mar-26 12:33N 53°54' E 014°16'0 0.0
2015-Mar-26 11:33N 53°54' E 014°16'0 0.0
2015-Mar-26 10:33N 53°54' E 014°16'0 0.0
2015-Mar-26 09:33N 53°54' E 014°16'0 0.0
2015-Mar-26 08:33N 53°54' E 014°16'0 0.0
2015-Mar-26 07:33N 53°54' E 014°16'0 0.0
2015-Mar-26 06:33N 53°54' E 014°16'0 0.0
2015-Mar-26 05:33N 53°54' E 014°16'0 0.0
2015-Mar-26 04:33N 53°54' E 014°16'0 0.0
2015-Mar-26 03:33N 53°54' E 014°16'0 0.0
2015-Mar-26 02:33N 53°54' E 014°16'0 0.0
2015-Mar-26 01:33N 53°54' E 014°16'0 0.0
2015-Mar-26 00:30N 53°54' E 014°16'0 0.0
2015-Mar-25 23:33N 53°54' E 014°16'0 0.0
2015-Mar-25 22:33N 53°54' E 014°16'0 0.0
2015-Mar-25 21:33N 53°54' E 014°16'0 0.0
2015-Mar-25 20:30N 53°54' E 014°16'0 0.0
2015-Mar-25 19:33N 53°54' E 014°16'0 0.0
2015-Mar-25 18:33N 53°54' E 014°16'0 0.0
2015-Mar-25 17:33N 53°54' E 014°16'0 0.0
2015-Mar-25 16:33N 53°54' E 014°16'0 0.0
2015-Mar-25 15:33N 53°54' E 014°16'0 0.0
2015-Mar-25 14:33N 53°54' E 014°16'0 0.0
2015-Mar-25 13:33N 53°54' E 014°16'0 0.0
2015-Mar-25 12:33N 53°54' E 014°16'0 0.0
2015-Mar-25 11:33N 53°54' E 014°16'0 0.0
2015-Mar-25 10:33N 53°54' E 014°16'0 0.2
2015-Mar-25 09:33N 53°53' E 014°16'0 0.0
2015-Mar-25 08:33N 53°53' E 014°16'0 0.0
2015-Mar-25 07:33N 53°53' E 014°16'0 0.0
2015-Mar-25 06:33N 53°53' E 014°16'0 0.0
2015-Mar-25 05:33N 53°53' E 014°16'0 0.0
2015-Mar-25 04:33N 53°53' E 014°16'0 0.0
2015-Mar-25 03:33N 53°53' E 014°16'0 0.0
2015-Mar-25 02:30N 53°53' E 014°16'0 0.0
2015-Mar-25 01:33N 53°53' E 014°16'0 0.0
2015-Mar-25 00:33N 53°53' E 014°16'0 0.0
2015-Mar-24 23:33N 53°53' E 014°16'0 0.0
2015-Mar-24 22:33N 53°53' E 014°16'0 0.0
2015-Mar-24 21:33N 53°53' E 014°16'0 0.0
2015-Mar-24 20:33N 53°53' E 014°16'0 0.0
2015-Mar-24 19:33N 53°53' E 014°16'0 0.0
2015-Mar-24 18:33N 53°53' E 014°16'0 0.0
2015-Mar-24 17:33N 53°53' E 014°16'0 0.0
2015-Mar-24 16:33N 53°53' E 014°16'0 0.0
2015-Mar-24 15:33N 53°53' E 014°16'0 0.0
2015-Mar-24 14:33N 53°53' E 014°16'0 0.0
2015-Mar-24 13:33N 53°53' E 014°16'0 0.0
2015-Mar-24 12:33N 53°53' E 014°16'0 0.0
2015-Mar-24 11:33N 53°53' E 014°16'0 0.0
2015-Mar-24 10:33N 53°53' E 014°16'0 0.0
2015-Mar-24 09:33N 53°53' E 014°16'0 0.0
2015-Mar-24 08:33N 53°53' E 014°16'0 0.0
2015-Mar-24 07:33N 53°53' E 014°16'0 0.0
2015-Mar-24 06:33N 53°53' E 014°16'0 0.0
2015-Mar-24 03:33N 53°53' E 014°16'0 0.0
2015-Mar-24 02:27N 53°53' E 014°16'0 0.0
2015-Mar-24 00:24N 53°53' E 014°16'0 0.0
2015-Mar-23 22:21N 53°53' E 014°16'0 0.0
2015-Mar-23 21:30N 53°53' E 014°16'0 0.0
2015-Mar-23 20:30N 53°53' E 014°16'0 0.0
2015-Mar-23 19:30N 53°53' E 014°16'0 0.0
2015-Mar-23 18:33N 53°53' E 014°16'0 0.0
2015-Mar-23 17:33N 53°53' E 014°16'0 0.0
2015-Mar-23 16:33N 53°53' E 014°16'0 0.0
2015-Mar-23 15:33N 53°53' E 014°16'0 0.0
2015-Mar-23 14:33N 53°53' E 014°16'0 0.0
2015-Mar-23 13:33N 53°53' E 014°16'0 0.0
2015-Mar-23 12:33N 53°53' E 014°16'0 0.0
2015-Mar-23 11:33N 53°53' E 014°16'0 0.0
2015-Mar-23 10:33N 53°53' E 014°16'0 0.0
2015-Mar-23 09:30N 53°53' E 014°16'0 0.0
2015-Mar-23 08:33N 53°53' E 014°16'0 0.0
2015-Mar-23 07:33N 53°53' E 014°16'0 0.0
2015-Mar-23 06:33N 53°53' E 014°16'0 0.0
2015-Mar-23 05:33N 53°53' E 014°16'0 0.0
2015-Mar-23 04:30N 53°53' E 014°16'0 0.0
2015-Mar-23 03:33N 53°53' E 014°16'0 0.0
2015-Mar-23 02:33N 53°53' E 014°16'0 0.0
2015-Mar-23 01:33N 53°53' E 014°16'0 0.0
2015-Mar-23 00:33N 53°53' E 014°16'0 0.0
2015-Mar-22 23:33N 53°53' E 014°16'0 0.0
2015-Mar-22 22:33N 53°53' E 014°16'0 0.0
2015-Mar-22 21:33N 53°53' E 014°16'0 0.0
2015-Mar-22 20:33N 53°53' E 014°16'0 0.0
2015-Mar-22 19:33N 53°53' E 014°16'0 0.0
2015-Mar-22 18:30N 53°53' E 014°16'0 0.0
2015-Mar-22 17:33N 53°53' E 014°16'0 0.0
2015-Mar-22 16:33N 53°53' E 014°16'0 0.0
2015-Mar-22 15:33N 53°53' E 014°16'0 0.0
2015-Mar-22 14:33N 53°53' E 014°16'0 0.0
2015-Mar-22 13:33N 53°53' E 014°16'0 0.0
2015-Mar-22 12:33N 53°53' E 014°16'0 0.0
2015-Mar-22 11:33N 53°53' E 014°16'0 0.0
2015-Mar-22 10:33N 53°53' E 014°16'0 0.0
2015-Mar-22 09:33N 53°53' E 014°16'0 0.0
2015-Mar-22 08:33N 53°53' E 014°16'0 0.0
2015-Mar-22 07:30N 53°53' E 014°16'0 0.0
2015-Mar-22 06:33N 53°53' E 014°16'0 0.0
2015-Mar-22 05:33N 53°53' E 014°16'0 0.0
2015-Mar-22 04:33N 53°53' E 014°16'0 0.0
2015-Mar-22 03:33N 53°53' E 014°16'0 0.0
2015-Mar-22 02:33N 53°53' E 014°16'0 0.0
2015-Mar-22 01:33N 53°53' E 014°16'0 0.0
2015-Mar-22 00:33N 53°53' E 014°16'0 0.0
2015-Mar-21 23:33N 53°53' E 014°16'0 0.0
2015-Mar-21 22:33N 53°53' E 014°16'0 0.0
2015-Mar-21 21:30N 53°53' E 014°16'0 0.0
2015-Mar-21 20:33N 53°53' E 014°16'0 0.0
2015-Mar-21 19:33N 53°53' E 014°16'0 0.0
2015-Mar-21 18:33N 53°53' E 014°16'0 0.0
2015-Mar-21 17:33N 53°53' E 014°16'0 0.0
2015-Mar-21 16:33N 53°53' E 014°16'0 0.0
2015-Mar-21 15:33N 53°53' E 014°16'0 0.0
2015-Mar-21 14:33N 53°53' E 014°16'0 0.0
2015-Mar-21 13:33N 53°53' E 014°16'0 0.0
2015-Mar-21 12:33N 53°53' E 014°16'0 0.0
2015-Mar-21 11:33N 53°53' E 014°16'0 0.0
2015-Mar-21 10:33N 53°53' E 014°16'0 0.0
2015-Mar-21 09:33N 53°53' E 014°16'0 0.0
2015-Mar-21 08:33N 53°53' E 014°16'0 0.0
2015-Mar-21 07:33N 53°53' E 014°16'0 0.0
2015-Mar-21 06:30N 53°53' E 014°16'0 0.0
2015-Mar-21 05:33N 53°53' E 014°16'0 0.0
2015-Mar-21 04:33N 53°53' E 014°16'0 0.0
2015-Mar-21 03:33N 53°53' E 014°16'0 0.0
2015-Mar-21 02:33N 53°53' E 014°16'0 0.0
2015-Mar-21 01:33N 53°53' E 014°16'0 0.0
2015-Mar-21 00:33N 53°53' E 014°16'0 0.0
2015-Mar-20 23:33N 53°53' E 014°16'0 0.0
2015-Mar-20 22:33N 53°53' E 014°16'0 0.0
2015-Mar-20 21:33N 53°53' E 014°16'0 0.0
2015-Mar-20 20:33N 53°53' E 014°16'0 0.0
2015-Mar-20 19:33N 53°53' E 014°16'0 0.0
2015-Mar-20 18:33N 53°53' E 014°16'0 0.0
2015-Mar-20 17:33N 53°53' E 014°16'0 0.0
2015-Mar-20 16:33N 53°53' E 014°16'0 0.0
2015-Mar-20 15:33N 53°53' E 014°16'0 0.0
2015-Mar-20 14:33N 53°53' E 014°16'0 0.0
2015-Mar-20 13:33N 53°53' E 014°16'0 0.0
2015-Mar-20 12:33N 53°53' E 014°16'0 0.0
2015-Mar-20 11:33N 53°53' E 014°16'0 0.0
2015-Mar-20 10:33N 53°53' E 014°16'0 0.0
2015-Mar-20 09:33N 53°53' E 014°16'0 0.0
2015-Mar-20 08:33N 53°53' E 014°16'0 0.0
2015-Mar-20 07:33N 53°53' E 014°16'0 0.0
2015-Mar-20 06:33N 53°53' E 014°16'0 0.0
2015-Mar-20 05:30N 53°53' E 014°16'0 0.0
2015-Mar-20 04:33N 53°53' E 014°16'0 0.0
2015-Mar-20 03:33N 53°53' E 014°16'0 0.0
2015-Mar-20 02:33N 53°53' E 014°16'0 0.0
2015-Mar-20 01:33N 53°53' E 014°16'0 0.0
2015-Mar-20 00:30N 53°53' E 014°16'0 0.0
2015-Mar-19 23:33N 53°53' E 014°16'0 0.0
2015-Mar-19 22:33N 53°53' E 014°16'0 0.0
2015-Mar-19 21:33N 53°53' E 014°16'0 0.0
2015-Mar-19 20:33N 53°53' E 014°16'0 0.0
2015-Mar-19 19:33N 53°53' E 014°16'0 0.0
2015-Mar-19 18:33N 53°53' E 014°16'0 0.0
2015-Mar-19 17:30N 53°53' E 014°16'0 0.0
2015-Mar-19 16:33N 53°53' E 014°16'0 0.0
2015-Mar-19 15:33N 53°53' E 014°16'0 0.0
2015-Mar-19 14:33N 53°53' E 014°16'0 0.0
2015-Mar-19 13:33N 53°53' E 014°16'0 0.0
2015-Mar-19 12:33N 53°53' E 014°16'0 0.0
2015-Mar-19 11:33N 53°53' E 014°16'0 0.0
2015-Mar-19 10:33N 53°53' E 014°16'0 0.0
2015-Mar-19 09:33N 53°53' E 014°16'0 0.0
2015-Mar-19 08:33N 53°53' E 014°16'0 0.0
2015-Mar-19 07:33N 53°53' E 014°16'0 0.0
2015-Mar-19 06:33N 53°53' E 014°16'0 0.0
2015-Mar-19 05:33N 53°53' E 014°16'0 0.0
2015-Mar-19 04:33N 53°53' E 014°16'0 0.0
2015-Mar-19 03:33N 53°53' E 014°16'0 0.0
2015-Mar-19 02:33N 53°53' E 014°16'0 0.0
2015-Mar-19 01:33N 53°53' E 014°16'0 0.0
2015-Mar-19 00:33N 53°53' E 014°16'0 0.0
2015-Mar-18 23:33N 53°53' E 014°16'0 0.0
2015-Mar-18 22:33N 53°53' E 014°16'0 0.0
2015-Mar-18 21:33N 53°53' E 014°16'0 0.0
2015-Mar-18 20:30N 53°53' E 014°16'0 0.0
2015-Mar-18 19:33N 53°53' E 014°16'0 0.0
2015-Mar-18 18:33N 53°53' E 014°16'0 0.0
2015-Mar-18 17:33N 53°53' E 014°16'0 0.0
2015-Mar-18 16:33N 53°53' E 014°16'0 0.0
2015-Mar-18 15:33N 53°53' E 014°16'0 0.0
2015-Mar-18 14:33N 53°53' E 014°16'0 0.0
2015-Mar-18 13:33N 53°53' E 014°16'0 0.0
2015-Mar-18 12:33N 53°53' E 014°16'0 0.0
2015-Mar-18 11:33N 53°53' E 014°16'  
Track history (hours):
 
Tides and Currents Weather Stations Pressure Air Temp Water Temp Dewpoint Dewpoint Depression Visibility Wind Speed Wind Dir Waves Ship Positions

Yvonne K.

Last reported at 2015-Mar-28 11:32 UTC. Time now 2015-Mar-28 12:22 UTC.
Position N 53°24' E 014°36'.

Length 90 m; draft 3.2 m.

Type: Cargo ship. MMSI: 244948000.

Date/timePositionNaut miles runAvg speedWind from/ knotsBaromVisibWave heightAir tempDewpointWater temp
2015-Mar-28 11:32N 53°24' E 014°36'0 0.0
2015-Mar-28 10:29N 53°24' E 014°36'0 0.0
2015-Mar-28 09:29N 53°24' E 014°36'0 0.0
2015-Mar-28 08:31N 53°24' E 014°36'0 0.0
2015-Mar-28 07:32N 53°24' E 014°36'0 0.0
2015-Mar-28 06:32N 53°24' E 014°36'0 0.0
2015-Mar-28 05:32N 53°24' E 014°36'0 0.0
2015-Mar-28 04:32N 53°24' E 014°36'0 0.0
2015-Mar-28 03:32N 53°24' E 014°36'0 0.0
2015-Mar-28 02:32N 53°24' E 014°36'0 0.0
2015-Mar-28 01:31N 53°24' E 014°36'0 0.0
2015-Mar-28 00:26N 53°24' E 014°36'0 0.0
2015-Mar-27 23:32N 53°24' E 014°36'0 0.0
2015-Mar-27 22:31N 53°24' E 014°36'0 0.0
2015-Mar-27 21:29N 53°24' E 014°36'0 0.0
2015-Mar-27 20:32N 53°24' E 014°36'0 0.0
2015-Mar-27 19:32N 53°24' E 014°36'0 0.0
2015-Mar-27 18:31N 53°24' E 014°36'0 0.0
2015-Mar-27 17:31N 53°24' E 014°36'0 0.0
2015-Mar-27 16:32N 53°24' E 014°36'0 0.0
2015-Mar-27 15:31N 53°24' E 014°36'0 0.0
2015-Mar-27 14:32N 53°24' E 014°36'0 0.0
2015-Mar-27 13:32N 53°24' E 014°36'0 0.0
2015-Mar-27 12:32N 53°24' E 014°36'0 0.0
2015-Mar-27 11:33N 53°24' E 014°36'4 4.1
2015-Mar-27 10:34N 53°28' E 014°36'8 8.4
2015-Mar-27 09:33N 53°37' E 014°35'9 9.4
2015-Mar-27 08:33N 53°44' E 014°26'9 8.6
2015-Mar-27 07:33N 53°51' E 014°17'2 2.3
2015-Mar-27 06:33N 53°54' E 014°16'0 0.0
2015-Mar-27 05:33N 53°54' E 014°16'0 0.0
2015-Mar-27 04:33N 53°54' E 014°16'0 0.0
2015-Mar-27 03:33N 53°54' E 014°16'0 0.0
2015-Mar-27 02:33N 53°54' E 014°16'0 0.0
2015-Mar-27 01:33N 53°54' E 014°16'0 0.0
2015-Mar-27 00:33N 53°54' E 014°16'0 0.0
2015-Mar-26 23:33N 53°54' E 014°16'0 0.0
2015-Mar-26 22:33N 53°54' E 014°16'0 0.0
2015-Mar-26 21:33N 53°54' E 014°16'0 0.0
2015-Mar-26 20:33N 53°54' E 014°16'0 0.0
2015-Mar-26 19:33N 53°54' E 014°16'0 0.0
2015-Mar-26 18:33N 53°54' E 014°16'0 0.0
2015-Mar-26 17:33N 53°54' E 014°16'0 0.0
2015-Mar-26 16:33N 53°54' E 014°16'0 0.0
2015-Mar-26 15:33N 53°54' E 014°16'0 0.0
2015-Mar-26 14:33N 53°54' E 014°16'0 0.0
2015-Mar-26 13:33N 53°54' E 014°16'0 0.0
2015-Mar-26 12:33N 53°54' E 014°16'0 0.0
2015-Mar-26 11:33N 53°54' E 014°16'0 0.0
2015-Mar-26 10:33N 53°54' E 014°16'0 0.0
2015-Mar-26 09:33N 53°54' E 014°16'0 0.0
2015-Mar-26 08:33N 53°54' E 014°16'0 0.0
2015-Mar-26 07:33N 53°54' E 014°16'0 0.0
2015-Mar-26 06:33N 53°54' E 014°16'0 0.0
2015-Mar-26 05:33N 53°54' E 014°16'0 0.0
2015-Mar-26 04:33N 53°54' E 014°16'0 0.0
2015-Mar-26 03:33N 53°54' E 014°16'0 0.0
2015-Mar-26 02:33N 53°54' E 014°16'0 0.0
2015-Mar-26 01:33N 53°54' E 014°16'0 0.0
2015-Mar-26 00:30N 53°54' E 014°16'0 0.0
2015-Mar-25 23:33N 53°54' E 014°16'0 0.0
2015-Mar-25 22:33N 53°54' E 014°16'0 0.0
2015-Mar-25 21:33N 53°54' E 014°16'0 0.0
2015-Mar-25 20:30N 53°54' E 014°16'0 0.0
2015-Mar-25 19:33N 53°54' E 014°16'0 0.0
2015-Mar-25 18:33N 53°54' E 014°16'0 0.0
2015-Mar-25 17:33N 53°54' E 014°16'0 0.0
2015-Mar-25 16:33N 53°54' E 014°16'0 0.0
2015-Mar-25 15:33N 53°54' E 014°16'0 0.0
2015-Mar-25 14:33N 53°54' E 014°16'0 0.0
2015-Mar-25 13:33N 53°54' E 014°16'0 0.0
2015-Mar-25 12:33N 53°54' E 014°16'0 0.0
2015-Mar-25 11:33N 53°54' E 014°16'0 0.0
2015-Mar-25 10:33N 53°54' E 014°16'0 0.2
2015-Mar-25 09:33N 53°53' E 014°16'0 0.0
2015-Mar-25 08:33N 53°53' E 014°16'0 0.0
2015-Mar-25 07:33N 53°53' E 014°16'0 0.0
2015-Mar-25 06:33N 53°53' E 014°16'0 0.0
2015-Mar-25 05:33N 53°53' E 014°16'0 0.0
2015-Mar-25 04:33N 53°53' E 014°16'0 0.0
2015-Mar-25 03:33N 53°53' E 014°16'0 0.0
2015-Mar-25 02:30N 53°53' E 014°16'0 0.0
2015-Mar-25 01:33N 53°53' E 014°16'0 0.0
2015-Mar-25 00:33N 53°53' E 014°16'0 0.0
2015-Mar-24 23:33N 53°53' E 014°16'0 0.0
2015-Mar-24 22:33N 53°53' E 014°16'0 0.0
2015-Mar-24 21:33N 53°53' E 014°16'0 0.0
2015-Mar-24 20:33N 53°53' E 014°16'0 0.0
2015-Mar-24 19:33N 53°53' E 014°16'0 0.0
2015-Mar-24 18:33N 53°53' E 014°16'0 0.0
2015-Mar-24 17:33N 53°53' E 014°16'0 0.0
2015-Mar-24 16:33N 53°53' E 014°16'0 0.0
2015-Mar-24 15:33N 53°53' E 014°16'0 0.0
2015-Mar-24 14:33N 53°53' E 014°16'0 0.0
2015-Mar-24 13:33N 53°53' E 014°16'0 0.0
2015-Mar-24 12:33N 53°53' E 014°16'0 0.0
2015-Mar-24 11:33N 53°53' E 014°16'0 0.0
2015-Mar-24 10:33N 53°53' E 014°16'0 0.0
2015-Mar-24 09:33N 53°53' E 014°16'0 0.0
2015-Mar-24 08:33N 53°53' E 014°16'0 0.0
2015-Mar-24 07:33N 53°53' E 014°16'0 0.0
2015-Mar-24 06:33N 53°53' E 014°16'0 0.0
2015-Mar-24 03:33N 53°53' E 014°16'0 0.0
2015-Mar-24 02:27N 53°53' E 014°16'0 0.0
2015-Mar-24 00:24N 53°53' E 014°16'0 0.0
2015-Mar-23 22:21N 53°53' E 014°16'0 0.0
2015-Mar-23 21:30N 53°53' E 014°16'0 0.0
2015-Mar-23 20:30N 53°53' E 014°16'0 0.0
2015-Mar-23 19:30N 53°53' E 014°16'0 0.0
2015-Mar-23 18:33N 53°53' E 014°16'0 0.0
2015-Mar-23 17:33N 53°53' E 014°16'0 0.0
2015-Mar-23 16:33N 53°53' E 014°16'0 0.0
2015-Mar-23 15:33N 53°53' E 014°16'0 0.0
2015-Mar-23 14:33N 53°53' E 014°16'0 0.0
2015-Mar-23 13:33N 53°53' E 014°16'0 0.0
2015-Mar-23 12:33N 53°53' E 014°16'0 0.0
2015-Mar-23 11:33N 53°53' E 014°16'0 0.0
2015-Mar-23 10:33N 53°53' E 014°16'0 0.0
2015-Mar-23 09:30N 53°53' E 014°16'0 0.0
2015-Mar-23 08:33N 53°53' E 014°16'0 0.0
2015-Mar-23 07:33N 53°53' E 014°16'0 0.0
2015-Mar-23 06:33N 53°53' E 014°16'0 0.0
2015-Mar-23 05:33N 53°53' E 014°16'0 0.0
2015-Mar-23 04:30N 53°53' E 014°16'0 0.0
2015-Mar-23 03:33N 53°53' E 014°16'0 0.0
2015-Mar-23 02:33N 53°53' E 014°16'0 0.0
2015-Mar-23 01:33N 53°53' E 014°16'0 0.0
2015-Mar-23 00:33N 53°53' E 014°16'0 0.0
2015-Mar-22 23:33N 53°53' E 014°16'0 0.0
2015-Mar-22 22:33N 53°53' E 014°16'0 0.0
2015-Mar-22 21:33N 53°53' E 014°16'0 0.0
2015-Mar-22 20:33N 53°53' E 014°16'0 0.0
2015-Mar-22 19:33N 53°53' E 014°16'0 0.0
2015-Mar-22 18:30N 53°53' E 014°16'0 0.0
2015-Mar-22 17:33N 53°53' E 014°16'0 0.0
2015-Mar-22 16:33N 53°53' E 014°16'0 0.0
2015-Mar-22 15:33N 53°53' E 014°16'0 0.0
2015-Mar-22 14:33N 53°53' E 014°16'0 0.0
2015-Mar-22 13:33N 53°53' E 014°16'0 0.0
2015-Mar-22 12:33N 53°53' E 014°16'0 0.0
2015-Mar-22 11:33N 53°53' E 014°16'0 0.0
2015-Mar-22 10:33N 53°53' E 014°16'0 0.0
2015-Mar-22 09:33N 53°53' E 014°16'0 0.0
2015-Mar-22 08:33N 53°53' E 014°16'0 0.0
2015-Mar-22 07:30N 53°53' E 014°16'0 0.0
2015-Mar-22 06:33N 53°53' E 014°16'0 0.0
2015-Mar-22 05:33N 53°53' E 014°16'0 0.0
2015-Mar-22 04:33N 53°53' E 014°16'0 0.0
2015-Mar-22 03:33N 53°53' E 014°16'0 0.0
2015-Mar-22 02:33N 53°53' E 014°16'0 0.0
2015-Mar-22 01:33N 53°53' E 014°16'0 0.0
2015-Mar-22 00:33N 53°53' E 014°16'0 0.0
2015-Mar-21 23:33N 53°53' E 014°16'0 0.0
2015-Mar-21 22:33N 53°53' E 014°16'0 0.0
2015-Mar-21 21:30N 53°53' E 014°16'0 0.0
2015-Mar-21 20:33N 53°53' E 014°16'0 0.0
2015-Mar-21 19:33N 53°53' E 014°16'0 0.0
2015-Mar-21 18:33N 53°53' E 014°16'0 0.0
2015-Mar-21 17:33N 53°53' E 014°16'0 0.0
2015-Mar-21 16:33N 53°53' E 014°16'0 0.0
2015-Mar-21 15:33N 53°53' E 014°16'0 0.0
2015-Mar-21 14:33N 53°53' E 014°16'0 0.0
2015-Mar-21 13:33N 53°53' E 014°16'0 0.0
2015-Mar-21 12:33N 53°53' E 014°16'0 0.0
2015-Mar-21 11:33N 53°53' E 014°16'0 0.0
2015-Mar-21 10:33N 53°53' E 014°16'0 0.0
2015-Mar-21 09:33N 53°53' E 014°16'0 0.0
2015-Mar-21 08:33N 53°53' E 014°16'0 0.0
2015-Mar-21 07:33N 53°53' E 014°16'0 0.0
2015-Mar-21 06:30N 53°53' E 014°16'0 0.0
2015-Mar-21 05:33N 53°53' E 014°16'0 0.0
2015-Mar-21 04:33N 53°53' E 014°16'0 0.0
2015-Mar-21 03:33N 53°53' E 014°16'0 0.0
2015-Mar-21 02:33N 53°53' E 014°16'0 0.0
2015-Mar-21 01:33N 53°53' E 014°16'0 0.0
2015-Mar-21 00:33N 53°53' E 014°16'0 0.0
2015-Mar-20 23:33N 53°53' E 014°16'0 0.0
2015-Mar-20 22:33N 53°53' E 014°16'0 0.0
2015-Mar-20 21:33N 53°53' E 014°16'0 0.0
2015-Mar-20 20:33N 53°53' E 014°16'0 0.0
2015-Mar-20 19:33N 53°53' E 014°16'0 0.0
2015-Mar-20 18:33N 53°53' E 014°16'0 0.0
2015-Mar-20 17:33N 53°53' E 014°16'0 0.0
2015-Mar-20 16:33N 53°53' E 014°16'0 0.0
2015-Mar-20 15:33N 53°53' E 014°16'0 0.0
2015-Mar-20 14:33N 53°53' E 014°16'0 0.0
2015-Mar-20 13:33N 53°53' E 014°16'0 0.0
2015-Mar-20 12:33N 53°53' E 014°16'0 0.0
2015-Mar-20 11:33N 53°53' E 014°16'0 0.0
2015-Mar-20 10:33N 53°53' E 014°16'0 0.0
2015-Mar-20 09:33N 53°53' E 014°16'0 0.0
2015-Mar-20 08:33N 53°53' E 014°16'0 0.0
2015-Mar-20 07:33N 53°53' E 014°16'0 0.0
2015-Mar-20 06:33N 53°53' E 014°16'0 0.0
2015-Mar-20 05:30N 53°53' E 014°16'0 0.0
2015-Mar-20 04:33N 53°53' E 014°16'0 0.0
2015-Mar-20 03:33N 53°53' E 014°16'0 0.0
2015-Mar-20 02:33N 53°53' E 014°16'0 0.0
2015-Mar-20 01:33N 53°53' E 014°16'0 0.0
2015-Mar-20 00:30N 53°53' E 014°16'0 0.0
2015-Mar-19 23:33N 53°53' E 014°16'0 0.0
2015-Mar-19 22:33N 53°53' E 014°16'0 0.0
2015-Mar-19 21:33N 53°53' E 014°16'0 0.0
2015-Mar-19 20:33N 53°53' E 014°16'0 0.0
2015-Mar-19 19:33N 53°53' E 014°16'0 0.0
2015-Mar-19 18:33N 53°53' E 014°16'0 0.0
2015-Mar-19 17:30N 53°53' E 014°16'0 0.0
2015-Mar-19 16:33N 53°53' E 014°16'0 0.0
2015-Mar-19 15:33N 53°53' E 014°16'0 0.0
2015-Mar-19 14:33N 53°53' E 014°16'0 0.0
2015-Mar-19 13:33N 53°53' E 014°16'0 0.0
2015-Mar-19 12:33N 53°53' E 014°16'0 0.0
2015-Mar-19 11:33N 53°53' E 014°16'0 0.0
2015-Mar-19 10:33N 53°53' E 014°16'0 0.0
2015-Mar-19 09:33N 53°53' E 014°16'0 0.0
2015-Mar-19 08:33N 53°53' E 014°16'0 0.0
2015-Mar-19 07:33N 53°53' E 014°16'0 0.0
2015-Mar-19 06:33N 53°53' E 014°16'0 0.0
2015-Mar-19 05:33N 53°53' E 014°16'0 0.0
2015-Mar-19 04:33N 53°53' E 014°16'0 0.0
2015-Mar-19 03:33N 53°53' E 014°16'0 0.0
2015-Mar-19 02:33N 53°53' E 014°16'0 0.0
2015-Mar-19 01:33N 53°53' E 014°16'0 0.0
2015-Mar-19 00:33N 53°53' E 014°16'0 0.0
2015-Mar-18 23:33N 53°53' E 014°16'0 0.0
2015-Mar-18 22:33N 53°53' E 014°16'0 0.0
2015-Mar-18 21:33N 53°53' E 014°16'0 0.0
2015-Mar-18 20:30N 53°53' E 014°16'0 0.0
2015-Mar-18 19:33N 53°53' E 014°16'0 0.0
2015-Mar-18 18:33N 53°53' E 014°16'0 0.0
2015-Mar-18 17:33N 53°53' E 014°16'0 0.0
2015-Mar-18 16:33N 53°53' E 014°16'0 0.0
2015-Mar-18 15:33N 53°53' E 014°16'0 0.0
2015-Mar-18 14:33N 53°53' E 014°16'0 0.0
2015-Mar-18 13:33N 53°53' E 014°16'0 0.0
2015-Mar-18 12:33N 53°53' E 014°16'0 0.0
2015-Mar-18 11:33N 53°53' E 014°16'  

Dump ship's entire track history